Main page
METAR-TAF:

METAR-TAF

Airports :

Mae Hong Son Airport

Mae Hong Son, Thailand

latitude: 19-18N, longitude: 097-50E, elevation: 267 m

Current weather observation

The report was made 9 hours and 24 minutes ago, at 11:00 UTC
Wind 2 kt from variable directions
Temperature 27°C
Humidity 66%
Pressure 1011 hPa
Visibility 10 km or more
Few clouds at a height of 2000 ft, Cumulonimbus.
showers in vicinity

METAR: VTCH 011100Z VRB02KT 9999 VCSH FEW020CB 27/20 Q1011 NOSIG

Time: 03:24 (20:24 UTC)

Forecast

The report was made 3 hours and 24 minutes ago, at 17:00 UTC
Forecast valid from 01 at 18 UTC to 02 at 18 UTC
Wind 5 kt from the South/Southeast
Visibility 10 km or more
Scattered clouds at a height of 2500 ft
Becoming
from 01 at 21 UTC to 01 at 23 UTC
Wind kt from the North
Visibility: 1000 m
mist
Becoming
from 02 at 01 UTC to 02 at 03 UTC
Wind 5 kt from the South
Visibility 10 km or more

TAF: VTCH 011700Z 0118/0218 15005KT 9999 SCT025 BECMG 0121/0123 00000KT 1000 BR BECMG 0201/0203 18005KT 9999 NSW

Weather observations and forecasts of more than 4000 airports (METAR and TAF reports).

The available stations are represented by yellow and red dots on the map.

Hover mouse over dot to see the name of the station.

Then click to see weather observations and forecasts.

To change the map : click on the green buttons with a black cross to zoom in, on the green button with a dash to zoom out, or on the green arrows for adjacent maps.


METAR-TAF: